Time;durP1;ratioP1;P1;durP2;ratioP2;P2;SDS_P1;SDS_P2;PMS_P1;PMS_P2;Temp;Humidity;BMP_temperature;BMP_pressure;BME280_temperature;BME280_humidity;BME280_pressure;Samples;Min_cycle;Max_cycle;Signal;HPM_P1;HPM_P2
2020/12/12 00:00:17;;;;;;;38.53;22.45;;;;;;;19.20;43.89;99302.28;2297030;77;51564;-74
2020/12/12 00:03:20;;;;;;;39.23;22.75;;;;;;;19.18;43.91;99305.70;2297170;77;50580;-75
2020/12/12 00:06:22;;;;;;;41.95;23.50;;;;;;;19.15;43.94;99311.51;2297404;77;50650;-75
2020/12/12 00:09:25;;;;;;;39.03;22.77;;;;;;;19.12;44.12;99304.72;2296984;77;52304;-77
2020/12/12 00:12:27;;;;;;;35.90;22.48;;;;;;;19.13;44.04;99310.90;2297486;77;50337;-77
2020/12/12 00:15:29;;;;;;;37.38;22.42;;;;;;;19.13;44.05;99302.33;2297656;77;50708;-79
2020/12/12 00:18:31;;;;;;;40.83;23.12;;;;;;;19.10;44.05;99293.91;2297500;77;51394;-75
2020/12/12 00:21:33;;;;;;;37.73;23.80;;;;;;;19.08;44.06;99292.78;2297672;77;51533;-76
2020/12/12 00:24:36;;;;;;;38.00;22.40;;;;;;;19.08;44.06;99305.38;2297480;77;51491;-76
2020/12/12 00:27:38;;;;;;;38.13;22.50;;;;;;;19.04;44.08;99296.14;2297622;76;50363;-77
2020/12/12 00:30:40;;;;;;;38.42;23.40;;;;;;;19.04;44.10;99293.47;2297470;77;51569;-77
2020/12/12 00:33:42;;;;;;;39.35;23.77;;;;;;;19.03;44.10;99287.78;2297694;77;50366;-77
2020/12/12 00:36:45;;;;;;;41.58;23.05;;;;;;;19.02;44.12;99294.20;2297411;77;50645;-77
2020/12/12 00:39:47;;;;;;;41.77;23.07;;;;;;;19.00;44.11;99293.06;2297282;77;50087;-77
2020/12/12 00:42:49;;;;;;;43.52;24.07;;;;;;;19.00;44.13;99289.57;2297279;77;50492;-77
2020/12/12 00:45:51;;;;;;;40.00;24.20;;;;;;;18.98;44.12;99283.07;2297073;77;51466;-77
2020/12/12 00:48:53;;;;;;;38.10;22.52;;;;;;;18.98;44.05;99288.44;2296811;77;50713;-77
2020/12/12 00:51:56;;;;;;;35.73;23.05;;;;;;;18.97;44.14;99284.66;2296980;77;52305;-77
2020/12/12 00:54:58;;;;;;;44.48;23.42;;;;;;;18.94;44.17;99285.91;2296737;77;51542;-75
2020/12/12 00:58:00;;;;;;;39.58;22.95;;;;;;;18.90;44.25;99277.46;2296872;77;51489;-76
2020/12/12 01:01:02;;;;;;;38.78;22.65;;;;;;;18.89;44.19;99287.89;2296745;77;50385;-76
2020/12/12 01:04:04;;;;;;;40.58;22.40;;;;;;;18.89;44.24;99292.44;2296936;77;50187;-76
2020/12/12 01:07:07;;;;;;;37.35;23.15;;;;;;;18.87;44.26;99295.33;2296880;77;50714;-76
2020/12/12 01:10:09;;;;;;;37.93;22.85;;;;;;;18.87;44.27;99289.16;2296474;77;50447;-76
2020/12/12 01:13:11;;;;;;;35.38;22.98;;;;;;;18.85;44.28;99286.68;2295983;77;51552;-74
2020/12/12 01:16:15;;;;;;;39.80;23.83;;;;;;;18.81;44.32;99288.17;2296823;77;50372;-76
2020/12/12 01:19:17;;;;;;;42.05;23.35;;;;;;;18.81;44.30;99280.66;2296793;77;52361;-78
2020/12/12 01:22:19;;;;;;;36.55;21.80;;;;;;;18.78;44.38;99286.42;2297570;77;51493;-77
2020/12/12 01:25:22;;;;;;;41.50;24.02;;;;;;;18.78;44.37;99289.11;2297328;77;50071;-76
2020/12/12 01:28:24;;;;;;;41.10;22.48;;;;;;;18.77;44.34;99285.61;2296952;77;50480;-76
2020/12/12 01:31:27;;;;;;;35.15;22.30;;;;;;;18.77;44.28;99285.61;2297152;77;51530;-76
2020/12/12 01:34:29;;;;;;;39.85;22.93;;;;;;;18.76;44.33;99285.32;2297129;77;51590;-75
2020/12/12 01:37:31;;;;;;;36.95;22.42;;;;;;;18.75;44.29;99287.68;2297128;77;51527;-76
2020/12/12 01:40:33;;;;;;;38.85;23.47;;;;;;;18.76;44.27;99292.02;2296799;77;50427;-77
2020/12/12 01:43:35;;;;;;;37.78;23.00;;;;;;;18.76;44.26;99294.70;2297088;77;50500;-76
2020/12/12 01:46:38;;;;;;;38.35;22.48;;;;;;;18.76;44.29;99296.04;2296840;77;50679;-76
2020/12/12 01:49:40;;;;;;;39.20;22.80;;;;;;;18.72;44.33;99297.47;2296703;77;51499;-76
2020/12/12 01:52:42;;;;;;;36.80;21.75;;;;;;;18.69;44.41;99293.36;2296782;77;51508;-76
2020/12/12 01:55:47;;;;;;;43.78;24.12;;;;;;;18.68;44.35;99294.41;2296822;77;51529;-76
2020/12/12 01:58:49;;;;;;;38.47;23.10;;;;;;;18.68;44.34;99292.26;2296774;75;50406;-75
2020/12/12 02:01:52;;;;;;;36.48;22.67;;;;;;;18.67;44.39;99290.59;2296865;77;50804;-76
2020/12/12 02:04:55;;;;;;;40.65;23.12;;;;;;;18.64;44.38;99289.17;2297011;77;50371;-76
2020/12/12 02:07:57;;;;;;;40.58;22.73;;;;;;;18.64;44.41;99287.02;2296738;77;50388;-77
2020/12/12 02:10:59;;;;;;;35.08;22.55;;;;;;;18.62;44.39;99286.41;2296770;77;50841;-76
2020/12/12 02:14:02;;;;;;;37.53;22.77;;;;;;;18.62;44.41;99289.09;2273108;77;52033;-75
2020/12/12 02:17:04;;;;;;;37.88;23.12;;;;;;;18.59;44.49;99293.02;2297295;77;50690;-74
2020/12/12 02:20:06;;;;;;;41.18;23.85;;;;;;;18.61;44.43;99290.13;2297541;77;50432;-76
2020/12/12 02:23:09;;;;;;;40.83;23.05;;;;;;;18.58;44.44;99283.87;2297683;77;50696;-76
2020/12/12 02:26:11;;;;;;;39.35;22.90;;;;;;;18.56;44.45;99277.91;2297472;77;51527;-77
2020/12/12 02:29:13;;;;;;;36.65;23.00;;;;;;;18.58;44.42;99285.22;2297371;77;51402;-76
2020/12/12 02:32:15;;;;;;;38.25;22.42;;;;;;;18.57;44.44;99280.88;2297239;77;50720;-76
2020/12/12 02:35:18;;;;;;;40.23;23.45;;;;;;;18.54;44.49;99276.77;2297261;77;51472;-77
2020/12/12 02:38:20;;;;;;;37.45;21.82;;;;;;;18.55;44.42;99282.94;2297199;77;50843;-77
2020/12/12 02:41:22;;;;;;;37.08;22.82;;;;;;;18.52;44.48;99279.36;2297349;77;51508;-77
2020/12/12 02:44:24;;;;;;;36.75;22.35;;;;;;;18.52;44.45;99284.20;2297316;77;50254;-76
2020/12/12 02:47:27;;;;;;;39.85;23.50;;;;;;;18.49;44.49;99282.77;2297050;77;50504;-76
2020/12/12 02:50:29;;;;;;;41.65;23.30;;;;;;;18.48;44.48;99285.69;2297038;77;50771;-75
2020/12/12 02:53:31;;;;;;;33.95;20.90;;;;;;;18.49;44.43;99286.79;2297073;77;51427;-76
2020/12/12 02:56:33;;;;;;;39.83;23.35;;;;;;;18.47;44.42;99280.84;2297316;77;52310;-76
2020/12/12 02:59:35;;;;;;;37.50;22.52;;;;;;;18.47;44.40;99280.00;2297090;77;52403;-76
2020/12/12 03:02:38;;;;;;;38.10;22.85;;;;;;;18.44;44.45;99273.75;2297384;77;50356;-76
2020/12/12 03:05:40;;;;;;;36.90;22.45;;;;;;;18.44;44.48;99283.94;2297217;77;50413;-75
2020/12/12 03:08:42;;;;;;;36.28;21.90;;;;;;;18.43;44.46;99287.66;2297094;77;51534;-75
2020/12/12 03:11:44;;;;;;;38.02;22.60;;;;;;;18.43;44.48;99276.95;2296966;77;51490;-75
2020/12/12 03:14:46;;;;;;;40.15;23.25;;;;;;;18.42;44.51;99279.83;2297006;77;51483;-75
2020/12/12 03:17:48;;;;;;;37.88;23.25;;;;;;;18.41;44.54;99272.31;2297069;77;50405;-76
2020/12/12 03:20:51;;;;;;;38.02;22.37;;;;;;;18.41;44.50;99278.20;2296899;77;50463;-76
2020/12/12 03:23:53;;;;;;;38.23;21.93;;;;;;;18.38;44.54;99269.27;2297076;77;50783;-76
2020/12/12 03:26:55;;;;;;;37.63;22.02;;;;;;;18.39;44.51;99279.73;2297370;77;51608;-76
2020/12/12 03:29:57;;;;;;;36.93;22.73;;;;;;;18.38;44.53;99279.97;2297350;76;51482;-75
2020/12/12 03:32:59;;;;;;;36.83;21.77;;;;;;;18.36;44.56;99278.84;2298462;77;51547;-76
2020/12/12 03:36:02;;;;;;;38.10;22.10;;;;;;;18.35;44.57;99277.20;2298099;77;50247;-77
2020/12/12 03:39:04;;;;;;;36.45;22.27;;;;;;;18.34;44.54;99274.73;2296831;77;50384;-75
2020/12/12 03:42:06;;;;;;;38.02;22.87;;;;;;;18.32;44.58;99274.96;2296904;77;50333;-76
2020/12/12 03:45:08;;;;;;;35.73;21.97;;;;;;;18.33;44.60;99282.47;2296888;77;51512;-76
2020/12/12 03:48:11;;;;;;;36.17;21.77;;;;;;;18.31;44.56;99282.67;2297012;77;51495;-75
2020/12/12 03:51:13;;;;;;;39.30;23.07;;;;;;;18.29;44.58;99280.76;2296676;77;51535;-74
2020/12/12 03:54:15;;;;;;;37.17;22.13;;;;;;;18.29;44.58;99286.11;2296751;77;51663;-74
2020/12/12 03:57:17;;;;;;;37.65;22.07;;;;;;;18.28;44.62;99283.11;2297050;77;50234;-74
2020/12/12 04:00:19;;;;;;;34.50;21.82;;;;;;;18.26;44.63;99282.50;2296892;77;50717;-74
2020/12/12 04:03:22;;;;;;;33.70;21.25;;;;;;;18.26;44.59;99286.02;2297026;77;51642;-74
2020/12/12 04:06:24;;;;;;;35.70;20.85;;;;;;;18.25;44.62;99284.88;2296923;77;50471;-75
2020/12/12 04:09:26;;;;;;;37.55;21.52;;;;;;;18.23;44.59;99285.61;2296551;77;50359;-75
2020/12/12 04:12:28;;;;;;;35.75;21.87;;;;;;;18.23;44.61;99290.44;2296855;77;50668;-76
2020/12/12 04:15:31;;;;;;;33.88;21.00;;;;;;;18.20;44.64;99284.70;2296979;77;51266;-76
2020/12/12 04:18:33;;;;;;;36.20;21.57;;;;;;;18.20;44.63;99292.73;2296860;77;51498;-76
2020/12/12 04:21:35;;;;;;;32.93;21.05;;;;;;;18.20;44.64;99278.02;2297063;77;50368;-76
2020/12/12 04:24:37;;;;;;;37.17;21.57;;;;;;;18.18;44.65;99277.39;2297078;77;50362;-74
2020/12/12 04:27:39;;;;;;;38.13;21.30;;;;;;;18.18;44.62;99285.42;2297004;77;50724;-74
2020/12/12 04:30:42;;;;;;;32.88;20.43;;;;;;;18.17;44.64;99278.44;2297256;76;51525;-74
2020/12/12 04:33:44;;;;;;;35.43;21.35;;;;;;;18.16;44.61;99276.78;2297325;77;51560;-74
2020/12/12 04:36:46;;;;;;;34.30;21.20;;;;;;;18.16;44.60;99286.15;2297459;77;51500;-75
2020/12/12 04:39:48;;;;;;;34.85;21.27;;;;;;;18.14;44.60;99279.69;2297216;77;50402;-75
2020/12/12 04:42:50;;;;;;;35.90;21.02;;;;;;;18.15;44.61;99279.17;2297470;77;51511;-75
2020/12/12 04:45:53;;;;;;;33.83;20.70;;;;;;;18.14;44.61;99281.55;2297458;77;50413;-75
2020/12/12 04:48:55;;;;;;;35.05;20.37;;;;;;;18.13;44.62;99270.52;2297443;77;50711;-75
2020/12/12 04:51:57;;;;;;;33.78;20.75;;;;;;;18.13;44.65;99274.53;2297641;77;51506;-75
2020/12/12 04:55:04;;;;;;;32.65;19.80;;;;;;;18.12;44.65;99276.92;2297486;77;50716;-75
2020/12/12 04:58:06;;;;;;;33.30;20.97;;;;;;;18.11;44.63;99280.61;2297029;77;50039;-76
2020/12/12 05:01:08;;;;;;;37.17;21.30;;;;;;;18.09;44.63;99281.37;2296941;77;50724;-74
2020/12/12 05:04:10;;;;;;;33.45;20.20;;;;;;;18.08;44.63;99279.70;2296991;77;51548;-77
2020/12/12 05:07:13;;;;;;;34.50;20.52;;;;;;;18.08;44.66;99281.86;2297319;77;50747;-76
2020/12/12 05:10:15;;;;;;;31.70;19.98;;;;;;;18.06;44.63;99286.11;2297006;77;50491;-76
2020/12/12 05:13:22;;;;;;;32.48;19.70;;;;;;;18.09;45.21;99292.89;2271928;77;51577;-76
2020/12/12 05:16:25;;;;;;;33.08;19.10;;;;;;;18.12;45.24;99287.11;2292941;77;51615;-76
2020/12/12 05:19:27;;;;;;;34.63;20.32;;;;;;;18.04;45.66;99289.51;2296955;77;51524;-77
2020/12/12 05:22:29;;;;;;;30.72;20.08;;;;;;;18.03;45.43;99294.56;2273290;77;50018;-75
2020/12/12 05:25:32;;;;;;;33.98;19.52;;;;;;;18.04;45.55;99290.84;2248158;77;51602;-75
2020/12/12 05:28:34;;;;;;;31.57;19.00;;;;;;;18.06;45.34;99293.33;2296836;76;50033;-76
2020/12/12 05:31:36;;;;;;;36.50;19.42;;;;;;;18.08;45.38;99294.43;2297068;77;51591;-76
2020/12/12 05:34:38;;;;;;;33.60;19.77;;;;;;;18.11;45.39;99298.02;2297113;77;50260;-75
2020/12/12 05:37:41;;;;;;;33.60;18.80;;;;;;;18.12;45.54;99297.00;2297142;77;50380;-76
2020/12/12 05:40:44;;;;;;;34.20;18.52;;;;;;;18.15;45.29;99289.88;2296763;77;50751;-76
2020/12/12 05:43:46;;;;;;;30.72;18.23;;;;;;;18.17;45.36;99289.97;2297020;77;50812;-75
2020/12/12 05:46:49;;;;;;;34.10;19.40;;;;;;;18.17;45.48;99290.48;2273120;77;51624;-76
2020/12/12 05:49:51;;;;;;;30.90;18.98;;;;;;;18.19;45.50;99292.45;2296794;77;51514;-76
2020/12/12 05:52:56;;;;;;;32.30;18.50;;;;;;;18.20;45.58;99291.39;2296766;77;51465;-76
2020/12/12 05:55:59;;;;;;;33.33;19.00;;;;;;;18.23;45.43;99292.30;2296949;77;50496;-76
2020/12/12 05:59:01;;;;;;;32.05;18.73;;;;;;;18.25;45.41;99307.12;2272848;77;50402;-76
2020/12/12 06:02:04;;;;;;;31.73;17.95;;;;;;;18.26;45.44;99302.58;2296796;77;50654;-75
2020/12/12 06:05:06;;;;;;;29.27;16.97;;;;;;;18.29;45.38;99304.85;2273011;77;50425;-77
2020/12/12 06:08:09;;;;;;;33.45;18.80;;;;;;;18.31;45.44;99308.11;2296982;77;51643;-77
2020/12/12 06:11:19;;;;;;;33.58;18.20;;;;;;;18.34;45.36;99309.05;2296849;77;50305;-79
2020/12/12 06:14:21;;;;;;;37.33;19.10;;;;;;;18.36;45.68;99314.17;2295191;77;50851;-77
2020/12/12 06:17:42;;;;;;;36.75;18.35;;;;;;;18.40;47.03;99307.37;2297194;77;50056;-79
2020/12/12 06:20:45;;;;;;;39.13;18.80;;;;;;;18.42;47.44;99302.09;2259394;78;50801;-78
2020/12/12 06:23:47;;;;;;;33.63;17.95;;;;;;;18.47;47.63;99306.30;2259299;78;51533;-77
2020/12/12 06:27:03;;;;;;;35.38;17.70;;;;;;;18.56;47.58;99302.83;2235820;78;51529;-77
2020/12/12 06:30:07;;;;;;;43.85;18.00;;;;;;;18.58;47.78;99299.42;2264344;77;50013;-77
2020/12/12 06:33:09;;;;;;;38.67;17.67;;;;;;;18.62;47.13;99297.13;2284757;76;50444;-76
2020/12/12 06:36:22;;;;;;;35.55;18.67;;;;;;;18.65;46.83;99302.89;2308334;77;50383;-77
2020/12/12 06:39:25;;;;;;;30.57;17.00;;;;;;;18.74;46.74;99308.80;2297649;76;50384;-77
2020/12/12 06:42:31;;;;;;;32.73;16.95;;;;;;;18.79;46.67;99302.30;2297014;77;50619;-77
2020/12/12 06:45:32;;;;;;;;;;;;;;;18.80;46.64;99305.80;2297127;77;50058;-78
2020/12/12 06:48:35;;;;;;;33.67;17.75;;;;;;;18.82;46.43;99303.20;2296996;77;52172;-76
2020/12/12 06:51:37;;;;;;;31.30;16.42;;;;;;;18.86;46.45;99312.45;2297138;77;51633;-77
2020/12/12 06:54:39;;;;;;;32.10;17.02;;;;;;;18.86;46.50;99308.97;2299343;77;51488;-78
2020/12/12 06:57:46;;;;;;;37.20;17.42;;;;;;;18.90;46.45;99305.61;2301895;75;50375;-79
2020/12/12 07:00:48;;;;;;;35.43;16.27;;;;;;;18.90;46.40;99314.17;2301635;77;50013;-78
2020/12/12 07:04:00;;;;;;;36.75;17.50;;;;;;;18.90;46.43;99314.98;2297116;77;50720;-78
2020/12/12 07:07:06;;;;;;;30.68;15.43;;;;;;;18.94;46.37;99324.77;2294797;77;50490;-78
2020/12/12 07:10:08;;;;;;;31.52;16.52;;;;;;;18.98;46.28;99329.17;2292556;77;50393;-78
2020/12/12 07:13:11;;;;;;;32.33;15.98;;;;;;;18.98;46.20;99320.60;2269616;77;50758;-77
2020/12/12 07:16:13;;;;;;;32.13;17.27;;;;;;;19.00;46.15;99328.44;2297811;76;51508;-77
2020/12/12 07:19:18;;;;;;;30.88;15.50;;;;;;;19.02;46.14;99329.05;2288788;77;50794;-77
2020/12/12 07:22:19;;;;;;;30.92;16.87;;;;;;;19.05;46.02;99336.13;2298592;76;22337;-76
2020/12/12 07:25:22;;;;;;;30.15;14.75;;;;;;;19.06;45.97;99336.94;2322977;76;51586;-77
2020/12/12 07:28:24;;;;;;;25.80;15.10;;;;;;;19.10;45.78;99338.16;2275383;77;51527;-76
2020/12/12 07:31:26;;;;;;;24.55;13.62;;;;;;;19.10;46.43;99336.28;2296694;76;51501;-76
2020/12/12 07:34:29;;;;;;;32.67;15.83;;;;;;;19.24;46.33;99341.05;2296995;77;50766;-75
2020/12/12 07:37:32;;;;;;;25.97;14.03;;;;;;;19.31;47.06;99341.78;2297049;75;51394;-76
2020/12/12 07:40:35;;;;;;;31.00;15.90;;;;;;;19.53;47.81;99346.77;2300240;76;50667;-78
2020/12/12 07:43:37;;;;;;;24.60;14.43;;;;;;;19.48;47.49;99345.27;2298340;77;51507;-77
2020/12/12 07:46:41;;;;;;;34.05;13.83;;;;;;;19.48;47.53;99352.79;2273302;77;50714;-78
2020/12/12 07:49:43;;;;;;;33.45;15.03;;;;;;;19.51;47.52;99356.37;2295091;77;51539;-78
2020/12/12 07:52:45;;;;;;;27.85;14.60;;;;;;;19.58;47.29;99365.71;2297273;77;51408;-78
2020/12/12 07:55:55;;;;;;;29.63;15.28;;;;;;;19.62;47.08;99368.76;2297048;77;51392;-78
2020/12/12 07:59:03;;;;;;;31.75;14.40;;;;;;;19.66;46.97;99375.34;2316516;76;50438;-78
2020/12/12 08:02:03;;;;;;;;;;;;;;;19.67;46.85;99377.81;2305972;75;22360;-78
2020/12/12 08:05:06;;;;;;;29.52;14.73;;;;;;;19.71;46.73;99373.66;2292758;77;51648;-78
2020/12/12 08:08:11;;;;;;;27.07;13.98;;;;;;;19.68;46.74;99379.47;2292518;77;50779;-78
2020/12/12 08:11:14;;;;;;;28.12;14.07;;;;;;;19.69;46.77;99386.47;2292540;77;50781;-78
2020/12/12 08:14:17;;;;;;;31.30;14.50;;;;;;;19.73;46.65;99393.05;2295031;77;50393;-78
2020/12/12 08:17:19;;;;;;;27.42;13.83;;;;;;;19.76;46.44;99389.92;2298054;77;50384;-78
2020/12/12 08:20:24;;;;;;;28.95;13.90;;;;;;;19.74;46.33;99397.36;2294188;77;50668;-79
2020/12/12 08:23:26;;;;;;;29.05;14.98;;;;;;;19.74;46.35;99397.36;2294261;77;50414;-78
2020/12/12 08:26:29;;;;;;;27.10;13.68;;;;;;;19.84;46.15;99405.45;2305131;75;51979;-79
2020/12/12 08:29:34;;;;;;;30.92;14.40;;;;;;;19.92;45.96;99398.44;2301679;77;50732;-79
2020/12/12 08:32:56;;;;;;;25.02;14.28;;;;;;;19.88;45.99;99405.28;2293564;77;50787;-78
2020/12/12 08:35:58;;;;;;;28.73;13.40;;;;;;;19.95;45.77;99408.73;2350072;75;50818;-78
2020/12/12 08:39:02;;;;;;;26.50;13.05;;;;;;;19.97;45.62;99407.99;2348594;75;50792;-77
2020/12/12 08:42:04;;;;;;;27.80;14.38;;;;;;;19.96;45.57;99408.52;2341020;75;50819;-78
2020/12/12 08:45:16;;;;;;;25.15;13.32;;;;;;;19.98;45.48;99405.59;2340452;76;50435;-77
2020/12/12 08:48:19;;;;;;;24.77;13.68;;;;;;;19.99;45.41;99413.44;2339410;76;50736;-77
2020/12/12 08:51:23;;;;;;;24.25;13.05;;;;;;;20.01;45.24;99412.70;2306478;76;51554;-78
2020/12/12 08:54:25;;;;;;;25.27;13.78;;;;;;;20.07;45.10;99419.04;2321476;76;50485;-78
2020/12/12 08:57:27;;;;;;;27.45;14.43;;;;;;;19.98;45.25;99420.36;2317720;76;50192;-78
2020/12/12 09:00:30;;;;;;;26.02;14.23;;;;;;;20.03;45.13;99418.36;2322347;76;51439;-79
2020/12/12 09:03:32;;;;;;;28.10;13.78;;;;;;;20.06;45.06;99426.78;2322820;76;51492;-79
2020/12/12 09:06:48;;;;;;;25.20;13.22;;;;;;;20.03;45.07;99435.81;2322313;76;51493;-78
2020/12/12 09:09:50;;;;;;;24.30;14.30;;;;;;;20.03;45.00;99437.97;2307283;75;50364;-78
2020/12/12 09:12:53;;;;;;;24.72;14.23;;;;;;;20.04;44.96;99432.91;2322423;76;50347;-79
2020/12/12 09:15:55;;;;;;;23.52;12.95;;;;;;;20.07;44.88;99439.17;2322373;76;50717;-79
2020/12/12 09:18:57;;;;;;;21.37;13.28;;;;;;;20.08;44.83;99436.78;2322279;76;50384;-79
2020/12/12 09:21:59;;;;;;;23.22;13.68;;;;;;;20.02;44.99;99439.02;2300058;76;49920;-79
2020/12/12 09:25:02;;;;;;;20.35;12.73;;;;;;;20.04;44.98;99438.78;2333094;75;50346;-78
2020/12/12 09:28:04;;;;;;;28.75;14.15;;;;;;;20.10;44.90;99439.26;2339312;75;50316;-78
2020/12/12 09:31:06;;;;;;;23.47;14.45;;;;;;;20.03;45.07;99443.34;2347557;75;50756;-78
2020/12/12 09:34:09;;;;;;;26.90;14.10;;;;;;;20.11;45.05;99443.57;2314269;76;50663;-79
2020/12/12 09:37:11;;;;;;;25.48;13.18;;;;;;;20.12;44.98;99451.42;2293069;75;50787;-81
2020/12/12 09:40:14;;;;;;;21.40;13.22;;;;;;;20.18;44.87;99456.41;2294922;77;50125;-78
2020/12/12 09:43:18;;;;;;;26.68;14.07;;;;;;;20.16;44.90;99462.00;2297019;76;51580;-78
2020/12/12 09:46:20;;;;;;;22.13;13.05;;;;;;;20.23;44.76;99453.88;2282312;77;50549;-76
2020/12/12 09:49:22;;;;;;;28.02;14.60;;;;;;;20.28;44.63;99461.28;2281125;78;50825;-78
2020/12/12 09:52:25;;;;;;;29.92;14.35;;;;;;;20.24;44.81;99467.59;2281106;76;51450;-76
2020/12/12 09:55:27;;;;;;;26.73;14.33;;;;;;;20.21;44.88;99462.68;2280977;78;50523;-77
2020/12/12 09:58:30;;;;;;;33.00;14.95;;;;;;;20.29;45.03;99468.28;2281233;76;50695;-78
2020/12/12 10:01:32;;;;;;;38.23;16.35;;;;;;;20.25;45.11;99464.42;2322303;76;51506;-77
2020/12/12 10:04:34;;;;;;;33.60;14.87;;;;;;;20.23;45.29;99470.81;2321467;76;50665;-75
2020/12/12 10:07:36;;;;;;;43.98;16.25;;;;;;;20.28;45.38;99470.68;2320204;76;51565;-76
2020/12/12 10:10:38;;;;;;;52.65;16.42;;;;;;;20.21;45.42;99464.84;2320421;76;51522;-77
2020/12/12 10:13:41;;;;;;;47.88;16.82;;;;;;;20.32;45.14;99465.14;2321918;76;50125;-77
2020/12/12 10:16:43;;;;;;;50.75;17.17;;;;;;;20.35;44.77;99469.56;2322155;76;50223;-77
2020/12/12 10:19:45;;;;;;;42.25;17.12;;;;;;;20.36;44.55;99465.82;2322266;76;50719;-78
2020/12/12 10:22:47;;;;;;;38.53;14.85;;;;;;;20.39;44.34;99464.55;2322610;76;52199;-78
2020/12/12 10:25:50;;;;;;;39.08;16.82;;;;;;;20.41;44.14;99471.88;2322584;75;51557;-78
2020/12/12 10:28:52;;;;;;;40.95;16.37;;;;;;;20.48;43.90;99471.81;2323387;76;51570;-78
2020/12/12 10:31:54;;;;;;;41.00;16.87;;;;;;;20.44;43.88;99469.55;2323853;75;51526;-78
2020/12/12 10:34:56;;;;;;;36.70;15.58;;;;;;;20.42;43.84;99468.98;2322953;76;51580;-78
2020/12/12 10:37:59;;;;;;;34.55;16.27;;;;;;;20.45;43.78;99465.02;2290545;76;50351;-78
2020/12/12 10:41:10;;;;;;;47.73;16.30;;;;;;;20.38;44.02;99474.48;2281856;76;51550;-80
2020/12/12 10:44:05;;;;;;;30.05;14.87;;;;;;;20.34;44.36;99464.41;2281971;76;23108;-80
2020/12/12 10:47:08;;;;;;;34.30;14.65;;;;;;;20.35;44.24;99462.85;2322172;76;51519;-78
2020/12/12 10:50:10;;;;;;;36.90;15.43;;;;;;;20.48;43.97;99463.75;2322325;76;50542;-79
2020/12/12 10:53:12;;;;;;;40.48;15.75;;;;;;;20.44;44.09;99470.08;2321803;76;50456;-78
2020/12/12 10:56:14;;;;;;;30.68;14.87;;;;;;;20.48;44.01;99466.44;2291587;76;50687;-79
2020/12/12 10:59:16;;;;;;;37.58;15.15;;;;;;;20.44;44.07;99463.36;2317480;76;51538;-79
2020/12/12 11:02:19;;;;;;;35.92;15.05;;;;;;;20.50;44.00;99461.14;2322128;76;50695;-79
2020/12/12 11:05:22;;;;;;;29.00;14.90;;;;;;;20.48;44.02;99460.53;2322994;75;51536;-78
2020/12/12 11:08:24;;;;;;;27.82;14.87;;;;;;;20.50;43.96;99462.98;2322159;75;51620;-79
2020/12/12 11:11:26;;;;;;;33.30;14.98;;;;;;;20.49;44.00;99451.95;2319478;76;50716;-80
2020/12/12 11:14:31;;;;;;;30.02;14.73;;;;;;;20.52;43.95;99459.02;2322544;76;50115;-78
2020/12/12 11:17:32;;;;;;;24.12;13.90;;;;;;;20.52;43.88;99454.18;2322578;76;22971;-79
2020/12/12 11:20:35;;;;;;;36.05;16.32;;;;;;;20.54;43.80;99461.00;2283168;78;50797;-78
2020/12/12 11:23:37;;;;;;;32.48;15.80;;;;;;;20.55;43.76;99455.95;2282897;78;50457;-78
2020/12/12 11:26:39;;;;;;;27.62;14.60;;;;;;;20.54;43.80;99456.12;2283217;78;50704;-79
2020/12/12 11:29:41;;;;;;;24.80;14.95;;;;;;;20.54;43.78;99464.19;2283448;78;51596;-79
2020/12/12 11:32:43;;;;;;;26.02;13.72;;;;;;;20.52;43.85;99461.71;2300992;76;51600;-76
2020/12/12 11:36:06;;;;;;;27.30;14.73;;;;;;;20.54;43.82;99465.53;2321969;76;51572;-75
2020/12/12 11:39:08;;;;;;;32.50;15.50;;;;;;;20.51;44.09;99461.42;2334611;76;22450;-77
2020/12/12 11:48:47;;;;;;;28.05;14.50;;;;;;;20.46;44.37;99465.31;2327841;75;22773;-75
2020/12/12 11:51:49;;;;;;;26.82;14.60;;;;;;;20.47;44.42;99466.94;2326000;76;50233;-75
2020/12/12 11:54:52;;;;;;;27.17;14.83;;;;;;;20.45;44.47;99470.40;2340459;76;50634;-77
2020/12/12 11:57:54;;;;;;;27.07;16.17;;;;;;;20.44;44.61;99476.27;2340580;76;51540;-77
2020/12/12 12:00:56;;;;;;;31.00;14.87;;;;;;;20.42;44.83;99472.16;2334205;76;51465;-75
2020/12/12 12:03:58;;;;;;;27.35;13.62;;;;;;;20.41;44.83;99475.91;2322437;76;51538;-77
2020/12/12 12:07:03;;;;;;;24.70;14.73;;;;;;;20.45;44.86;99480.61;2322673;76;50329;-76
2020/12/12 12:13:21;;;;;;;23.85;13.15;;;;;;;20.52;44.42;99473.80;2279584;76;32239;-74
2020/12/12 12:16:23;;;;;;;27.55;13.98;;;;;;;20.62;44.49;99482.20;2339161;75;50150;-76
2020/12/12 12:19:25;;;;;;;31.40;14.58;;;;;;;20.61;44.56;99481.91;2308087;75;51508;-76
2020/12/12 12:22:27;;;;;;;27.48;15.03;;;;;;;20.60;44.61;99480.28;2283322;78;49781;-76
2020/12/12 12:25:30;;;;;;;31.40;14.07;;;;;;;20.64;44.27;99484.14;2283618;77;51522;-74
2020/12/12 12:28:32;;;;;;;30.90;14.18;;;;;;;20.62;44.48;99487.56;2283510;78;50720;-75
2020/12/12 12:31:35;;;;;;;26.62;13.95;;;;;;;20.60;44.58;99483.47;2288760;76;51444;-77
2020/12/12 12:34:37;;;;;;;27.50;13.85;;;;;;;20.58;44.55;99489.08;2322663;76;50379;-75
2020/12/12 12:37:39;;;;;;;24.27;13.75;;;;;;;20.57;44.53;99486.61;2330274;75;50478;-76
2020/12/12 12:40:41;;;;;;;27.90;15.10;;;;;;;20.62;44.32;99490.78;2329755;75;50726;-76
2020/12/12 12:43:43;;;;;;;28.07;15.23;;;;;;;20.64;44.22;99493.55;2319871;76;50349;-77
2020/12/12 12:46:49;;;;;;;31.50;14.70;;;;;;;20.58;44.28;99490.42;2322954;76;50440;-77
2020/12/12 12:49:50;;;;;;;26.17;13.40;;;;;;;20.65;44.01;99492.52;2322445;76;23133;-77
2020/12/12 12:52:52;;;;;;;31.60;15.55;;;;;;;20.58;44.14;99495.80;2323719;76;50711;-78
2020/12/12 12:55:54;;;;;;;29.42;15.35;;;;;;;20.57;44.09;99494.14;2324583;75;50622;-78
2020/12/12 12:58:56;;;;;;;25.57;14.28;;;;;;;20.57;44.00;99500.86;2325670;76;50716;-78
2020/12/12 13:01:59;;;;;;;29.35;15.23;;;;;;;20.61;43.87;99502.59;2340560;75;50721;-77
2020/12/12 13:05:01;;;;;;;26.23;15.00;;;;;;;20.59;43.81;99495.27;2337585;75;51498;-76
2020/12/12 13:08:03;;;;;;;25.57;14.70;;;;;;;20.60;43.75;99504.47;2322422;75;50431;-76
2020/12/12 13:11:07;;;;;;;27.40;14.70;;;;;;;20.58;43.72;99499.02;2331325;76;50472;-78
2020/12/12 13:14:09;;;;;;;24.63;15.35;;;;;;;20.59;43.60;99506.84;2339609;75;50293;-78
2020/12/12 13:17:11;;;;;;;22.73;15.45;;;;;;;20.59;43.47;99514.08;2337830;75;51480;-77
2020/12/12 13:23:34;;;;;;;26.93;14.90;;;;;;;20.63;43.23;99513.42;2322654;76;24374;-76
2020/12/12 13:26:36;;;;;;;23.40;15.25;;;;;;;20.62;43.18;99514.97;2334931;75;51480;-76
2020/12/12 13:32:51;;;;;;;23.98;14.53;;;;;;;20.63;43.15;99527.39;2322518;76;22752;-76
2020/12/12 13:35:54;;;;;;;24.55;15.03;;;;;;;20.72;43.00;99526.55;2322246;75;51463;-76
2020/12/12 13:38:56;;;;;;;26.05;14.58;;;;;;;20.73;42.95;99530.88;2324227;76;51459;-77
2020/12/12 13:41:59;;;;;;;23.32;14.60;;;;;;;20.70;43.00;99538.05;2340284;75;50403;-75
2020/12/12 13:45:04;;;;;;;23.07;14.03;;;;;;;20.72;42.94;99532.75;2322274;75;51483;-77
2020/12/12 13:48:06;;;;;;;25.40;13.85;;;;;;;20.70;43.00;99542.08;2312310;75;50420;-77
2020/12/12 13:51:08;;;;;;;21.73;14.13;;;;;;;20.71;42.99;99539.18;2303787;75;50605;-76
2020/12/12 13:54:10;;;;;;;26.62;14.58;;;;;;;20.69;42.98;99545.83;2291628;76;49995;-77
2020/12/12 13:57:13;;;;;;;20.80;14.15;;;;;;;20.72;42.92;99550.75;2292378;76;50691;-77
2020/12/12 14:00:15;;;;;;;26.23;14.45;;;;;;;20.74;42.78;99545.97;2316548;75;51566;-77
2020/12/12 14:03:17;;;;;;;24.25;14.40;;;;;;;20.73;42.78;99544.31;2316388;76;51578;-78
2020/12/12 14:06:20;;;;;;;22.25;14.18;;;;;;;20.75;42.78;99547.61;2307098;76;51568;-77
2020/12/12 14:09:37;;;;;;;22.55;13.55;;;;;;;20.74;42.77;99555.38;2278864;77;52685;-78
2020/12/12 14:22:24;;;;;;;20.57;13.85;;;;;;;20.75;42.75;99566.42;2181169;80;23409;-77
2020/12/12 14:25:19;;;;;;;25.52;14.20;;;;;;;20.74;42.79;99573.67;2198961;79;22417;-75